createdAt,value
2018-04-07T00:00:31.401Z,51.81
2018-04-07T00:01:32.524Z,51.43
2018-04-07T00:02:31.408Z,51.52
2018-04-07T00:03:31.425Z,51.33
2018-04-07T00:04:31.341Z,51.62
2018-04-07T00:05:31.325Z,51.90
2018-04-07T00:06:31.326Z,51.62
2018-04-07T00:07:31.334Z,52.38
2018-04-07T00:08:31.289Z,52.28
2018-04-07T00:09:31.280Z,52.19
2018-04-07T00:10:31.270Z,51.71
2018-04-07T00:11:31.233Z,52.19
2018-04-07T00:12:31.492Z,52.09
2018-04-07T00:13:31.217Z,52.00
2018-04-07T00:14:31.200Z,52.38
2018-04-07T00:15:31.188Z,52.19
2018-04-07T00:16:31.166Z,52.28
2018-04-07T00:17:31.142Z,52.86
2018-04-07T00:18:31.132Z,52.83
2018-04-07T00:19:31.121Z,52.76
2018-04-07T00:20:31.114Z,52.67
2018-04-07T00:21:31.107Z,52.76
2018-04-07T00:22:31.097Z,52.57
2018-04-07T00:23:31.203Z,52.48
2018-04-07T00:24:31.781Z,52.57
2018-04-07T00:25:31.495Z,52.57
2018-04-07T00:26:31.039Z,53.05
2018-04-07T00:27:31.156Z,53.31
2018-04-07T00:28:30.970Z,53.31
2018-04-07T00:29:31.014Z,53.50
2018-04-07T00:30:30.961Z,53.59
2018-04-07T00:31:30.931Z,53.33
2018-04-07T00:32:30.939Z,53.53
2018-04-07T00:33:30.891Z,53.72
2018-04-07T00:34:30.919Z,53.33
2018-04-07T00:35:30.977Z,53.24
2018-04-07T00:36:30.841Z,53.02
2018-04-07T00:37:30.839Z,52.48
2018-04-07T00:38:30.808Z,52.67
2018-04-07T00:39:30.791Z,52.57
2018-04-07T00:40:30.805Z,52.67
2018-04-07T00:41:30.774Z,52.67
2018-04-07T00:42:30.804Z,52.57
2018-04-07T00:43:30.738Z,52.76
2018-04-07T00:44:30.730Z,52.67
2018-04-07T00:45:30.951Z,52.95
2018-04-07T00:46:31.641Z,52.57
2018-04-07T00:47:30.713Z,52.76
2018-04-07T00:48:30.663Z,52.76
2018-04-07T00:49:31.906Z,53.33
2018-04-07T00:50:30.620Z,52.95
2018-04-07T00:51:30.616Z,53.59
2018-04-07T00:52:31.132Z,53.21
2018-04-07T00:53:30.698Z,53.31
2018-04-07T00:54:30.586Z,53.78
2018-04-07T00:55:30.582Z,53.69
2018-04-07T00:56:30.524Z,53.50
2018-04-07T00:57:30.530Z,53.50
2018-04-07T00:58:30.521Z,53.50
2018-04-07T00:59:30.508Z,53.31
2018-04-07T01:00:31.116Z,53.41
2018-04-07T01:01:30.477Z,53.41
2018-04-07T01:02:30.429Z,53.12
2018-04-07T01:03:30.434Z,53.31
2018-04-07T01:04:30.713Z,54.36
2018-04-07T01:05:30.416Z,53.69
2018-04-07T01:06:30.399Z,54.45
2018-04-07T01:07:30.370Z,54.45
2018-04-07T01:08:32.531Z,54.17
2018-04-07T01:09:30.365Z,54.45
2018-04-07T01:10:30.362Z,54.55
2018-04-07T01:11:30.300Z,54.45
2018-04-07T01:12:30.292Z,54.17
2018-04-07T01:13:30.314Z,53.97
2018-04-07T01:14:30.274Z,53.88
2018-04-07T01:15:30.277Z,54.17
2018-04-07T01:16:30.243Z,54.07
2018-04-07T01:17:30.222Z,54.55
2018-04-07T01:18:30.209Z,54.64
2018-04-07T01:19:30.189Z,54.55
2018-04-07T01:20:30.185Z,54.74
2018-04-07T01:21:30.194Z,54.93
2018-04-07T01:22:30.136Z,54.55
2018-04-07T01:23:30.107Z,54.55
2018-04-07T01:24:30.113Z,54.83
2018-04-07T01:25:30.071Z,54.83
2018-04-07T01:26:30.058Z,55.12
2018-04-07T01:27:30.066Z,55.21
2018-04-07T01:28:30.027Z,54.93
2018-04-07T01:29:30.020Z,54.93
2018-04-07T01:30:30.013Z,55.02
2018-04-07T01:31:29.988Z,54.74
2018-04-07T01:32:30.042Z,54.83
2018-04-07T01:33:29.957Z,55.21
2018-04-07T01:34:29.936Z,54.93
2018-04-07T01:35:29.931Z,55.21
2018-04-07T01:36:29.937Z,55.02
2018-04-07T01:37:29.896Z,55.12
2018-04-07T01:38:29.936Z,55.02
2018-04-07T01:39:30.095Z,54.93
2018-04-07T01:40:30.535Z,54.93
2018-04-07T01:41:30.592Z,55.02
2018-04-07T01:42:29.823Z,55.12
2018-04-07T01:43:29.862Z,55.41
2018-04-07T01:44:29.812Z,55.41
2018-04-07T01:45:29.786Z,55.50
2018-04-07T01:46:29.751Z,55.79
2018-04-07T01:47:29.730Z,55.79
2018-04-07T01:48:29.728Z,55.79
2018-04-07T01:49:29.763Z,56.17
2018-04-07T01:50:29.708Z,56.07
2018-04-07T01:51:29.674Z,56.46
2018-04-07T01:52:29.650Z,56.24
2018-04-07T01:53:29.673Z,56.36
2018-04-07T01:54:29.664Z,56.26
2018-04-07T01:55:29.606Z,56.62
2018-04-07T01:56:29.611Z,56.46
2018-04-07T01:57:29.603Z,56.55
2018-04-07T01:58:29.578Z,56.36
2018-04-07T01:59:29.573Z,56.17
2018-04-07T02:00:29.573Z,56.36
2018-04-07T02:01:29.521Z,56.36
2018-04-07T02:02:29.519Z,56.36
2018-04-07T02:03:29.501Z,56.33
2018-04-07T02:04:29.494Z,56.24
2018-04-07T02:05:50.486Z,56.55
2018-04-07T02:06:29.466Z,56.55
2018-04-07T02:07:29.464Z,56.65
2018-04-07T02:08:29.397Z,56.74
2018-04-07T02:09:29.386Z,56.52
2018-04-07T02:10:29.396Z,56.71
2018-04-07T02:11:29.404Z,56.17
2018-04-07T02:12:29.353Z,55.98
2018-04-07T02:13:29.321Z,55.98
2018-04-07T02:14:29.317Z,56.43
2018-04-07T02:15:29.300Z,56.14
2018-04-07T02:16:31.173Z,56.14
2018-04-07T02:17:29.282Z,56.14
2018-04-07T02:18:29.251Z,56.14
2018-04-07T02:19:29.263Z,56.04
2018-04-07T02:20:29.216Z,56.04
2018-04-07T02:21:29.210Z,56.14
2018-04-07T02:22:29.249Z,56.24
2018-04-07T02:23:29.187Z,56.52
2018-04-07T02:24:29.198Z,55.95
2018-04-07T02:25:29.142Z,56.14
2018-04-07T02:26:29.170Z,56.62
2018-04-07T02:27:29.098Z,56.71
2018-04-07T02:28:29.098Z,56.14
2018-04-07T02:29:29.058Z,56.24
2018-04-07T02:30:29.245Z,56.04
2018-04-07T02:31:29.052Z,55.85
2018-04-07T02:32:29.030Z,56.52
2018-04-07T02:33:29.026Z,56.24
2018-04-07T02:34:29.008Z,56.33
2018-04-07T02:35:28.985Z,56.33
2018-04-07T02:36:28.952Z,56.65
2018-04-07T02:37:28.970Z,56.52
2018-04-07T02:38:28.952Z,56.04
2018-04-07T02:39:29.744Z,56.52
2018-04-07T02:40:29.054Z,56.24
2018-04-07T02:41:28.893Z,56.52
2018-04-07T02:42:29.688Z,56.14
2018-04-07T02:43:28.871Z,56.71
2018-04-07T02:44:29.548Z,56.43
2018-04-07T02:45:28.843Z,56.33
2018-04-07T02:46:28.805Z,56.33
2018-04-07T02:47:28.782Z,56.52
2018-04-07T02:48:28.780Z,56.71
2018-04-07T02:49:28.757Z,56.81
2018-04-07T02:50:28.759Z,56.81
2018-04-07T02:51:28.724Z,56.71
2018-04-07T02:52:28.714Z,57.00
2018-04-07T02:53:28.715Z,56.52
2018-04-07T02:54:28.692Z,56.62
2018-04-07T02:55:29.544Z,56.71
2018-04-07T02:56:28.649Z,57.00
2018-04-07T02:57:28.625Z,56.71
2018-04-07T02:58:28.622Z,56.33
2018-04-07T02:59:28.592Z,56.90
2018-04-07T03:00:28.619Z,56.71
2018-04-07T03:01:28.609Z,56.62
2018-04-07T03:02:28.562Z,56.33
2018-04-07T03:03:34.552Z,56.52
2018-04-07T03:04:28.526Z,56.33
2018-04-07T03:05:28.531Z,56.52
2018-04-07T03:06:28.553Z,56.43
2018-04-07T03:07:28.497Z,56.43
2018-04-07T03:08:28.445Z,56.33
2018-04-07T03:09:28.458Z,56.90
2018-04-07T03:10:28.439Z,56.81
2018-04-07T03:11:29.165Z,56.90
2018-04-07T03:12:28.449Z,57.09
2018-04-07T03:13:28.373Z,57.00
2018-04-07T03:14:28.355Z,57.38
2018-04-07T03:15:28.373Z,57.09
2018-04-07T03:16:28.314Z,57.09
2018-04-07T03:17:28.300Z,57.09
2018-04-07T03:18:28.314Z,57.09
2018-04-07T03:19:28.264Z,56.71
2018-04-07T03:20:28.318Z,56.90
2018-04-07T03:21:28.254Z,57.09
2018-04-07T03:22:28.249Z,57.00
2018-04-07T03:23:30.051Z,56.81
2018-04-07T03:24:31.050Z,56.90
2018-04-07T03:25:29.337Z,57.19
2018-04-07T03:26:28.183Z,57.00
2018-04-07T03:27:33.052Z,57.00
2018-04-07T03:28:28.175Z,57.19
2018-04-07T03:29:28.139Z,57.19
2018-04-07T03:30:28.095Z,57.00
2018-04-07T03:31:28.288Z,56.90
2018-04-07T03:32:30.395Z,56.90
2018-04-07T03:33:28.158Z,57.09
2018-04-07T03:34:28.330Z,57.19
2018-04-07T03:35:28.020Z,57.38
2018-04-07T03:36:28.008Z,57.57
2018-04-07T03:37:28.019Z,57.00
2018-04-07T03:38:27.981Z,57.09
2018-04-07T03:39:27.950Z,57.48
2018-04-07T03:40:28.551Z,57.38
2018-04-07T03:41:28.720Z,57.76
2018-04-07T03:42:27.986Z,57.76
2018-04-07T03:43:28.620Z,58.04
2018-04-07T03:44:33.054Z,57.86
2018-04-07T03:45:27.957Z,57.86
2018-04-07T03:46:28.651Z,57.95
2018-04-07T03:47:27.826Z,58.04
2018-04-07T03:48:29.061Z,58.04
2018-04-07T03:49:27.818Z,58.14
2018-04-07T03:50:27.790Z,58.14
2018-04-07T03:51:27.830Z,57.86
2018-04-07T03:52:27.745Z,57.86
2018-04-07T03:53:27.746Z,57.86
2018-04-07T03:54:27.711Z,57.86
2018-04-07T03:55:27.814Z,57.67
2018-04-07T03:56:27.730Z,57.67
2018-04-07T03:57:27.654Z,57.76
2018-04-07T03:58:27.843Z,57.95
2018-04-07T04:00:27.644Z,57.86
2018-04-07T04:01:27.612Z,57.76
2018-04-07T04:02:27.596Z,58.24
2018-04-07T04:03:27.641Z,58.43
2018-04-07T04:04:27.567Z,58.43
2018-04-07T04:05:27.538Z,58.81
2018-04-07T04:06:27.554Z,58.72
2018-04-07T04:07:27.554Z,58.69
2018-04-07T04:08:27.507Z,58.43
2018-04-07T04:09:27.459Z,58.50
2018-04-07T04:10:27.467Z,58.33
2018-04-07T04:11:27.442Z,58.33
2018-04-07T04:12:27.437Z,58.50
2018-04-07T04:13:29.124Z,58.62
2018-04-07T04:14:27.385Z,58.59
2018-04-07T04:15:27.364Z,58.69
2018-04-07T04:16:27.352Z,58.50
2018-04-07T04:17:27.353Z,58.87
2018-04-07T04:18:27.332Z,59.16
2018-04-07T04:19:27.324Z,59.06
2018-04-07T04:20:28.120Z,58.59
2018-04-07T04:21:30.156Z,58.97
2018-04-07T04:22:27.346Z,58.78
2018-04-07T04:23:28.139Z,58.97
2018-04-07T04:24:27.227Z,58.59
2018-04-07T04:25:27.256Z,58.59
2018-04-07T04:26:27.194Z,58.97
2018-04-07T04:27:27.306Z,58.87
2018-04-07T04:28:31.064Z,59.35
2018-04-07T04:29:27.159Z,59.26
2018-04-07T04:30:27.147Z,58.78
2018-04-07T04:31:27.127Z,59.26
2018-04-07T04:32:27.106Z,59.26
2018-04-07T04:33:27.127Z,59.45
2018-04-07T04:34:27.662Z,59.45
2018-04-07T04:35:27.092Z,59.64
2018-04-07T04:36:27.728Z,59.54
2018-04-07T04:37:27.603Z,59.54
2018-04-07T04:38:27.006Z,59.54
2018-04-07T04:39:26.987Z,59.74
2018-04-07T04:40:27.001Z,59.35
2018-04-07T04:41:26.946Z,59.64
2018-04-07T04:42:26.973Z,59.45
2018-04-07T04:43:26.936Z,59.64
2018-04-07T04:44:26.945Z,59.16
2018-04-07T04:45:26.918Z,59.64
2018-04-07T04:46:26.881Z,59.64
2018-04-07T04:47:26.856Z,60.02
2018-04-07T04:48:26.853Z,59.64
2018-04-07T04:49:26.842Z,59.92
2018-04-07T04:50:27.023Z,60.40
2018-04-07T04:51:26.817Z,59.64
2018-04-07T04:52:29.565Z,60.21
2018-04-07T04:53:27.748Z,59.92
2018-04-07T04:54:26.775Z,60.11
2018-04-07T04:55:26.733Z,59.83
2018-04-07T04:56:26.736Z,59.74
2018-04-07T04:57:26.708Z,59.54
2018-04-07T04:58:26.670Z,59.45
2018-04-07T04:59:26.668Z,59.92
2018-04-07T05:00:26.648Z,60.02
2018-04-07T05:01:26.639Z,60.11
2018-04-07T05:02:26.641Z,59.74
2018-04-07T05:03:26.788Z,60.21
2018-04-07T05:04:26.605Z,60.40
2018-04-07T05:05:26.558Z,60.30
2018-04-07T05:06:26.570Z,60.11
2018-04-07T05:07:26.570Z,60.40
2018-04-07T05:08:26.516Z,59.83
2018-04-07T05:09:26.491Z,60.30
2018-04-07T05:10:26.481Z,60.49
2018-04-07T05:11:31.068Z,60.11
2018-04-07T05:12:26.480Z,60.11
2018-04-07T05:13:26.488Z,60.21
2018-04-07T05:14:26.465Z,60.30
2018-04-07T05:15:26.401Z,60.11
2018-04-07T05:16:26.376Z,60.40
2018-04-07T05:17:26.448Z,60.30
2018-04-07T05:18:26.387Z,60.21
2018-04-07T05:19:26.344Z,60.11
2018-04-07T05:20:26.342Z,59.92
2018-04-07T05:21:26.314Z,60.02
2018-04-07T05:22:26.279Z,60.30
2018-04-07T05:23:26.275Z,60.21
2018-04-07T05:24:26.278Z,60.30
2018-04-07T05:25:26.258Z,60.40
2018-04-07T05:26:26.228Z,60.40
2018-04-07T05:27:26.231Z,60.40
2018-04-07T05:28:26.179Z,60.49
2018-04-07T05:29:26.188Z,60.21
2018-04-07T05:30:26.175Z,60.49
2018-04-07T05:31:26.144Z,60.30
2018-04-07T05:32:26.114Z,60.40
2018-04-07T05:33:26.122Z,60.40
2018-04-07T05:34:26.124Z,60.30
2018-04-07T05:35:26.076Z,60.49
2018-04-07T05:36:26.111Z,60.40
2018-04-07T05:37:26.113Z,59.92
2018-04-07T05:38:26.025Z,60.05
2018-04-07T05:39:26.000Z,59.76
2018-04-07T05:40:25.989Z,59.48
2018-04-07T05:41:25.967Z,59.74
2018-04-07T05:42:25.970Z,59.57
2018-04-07T05:43:25.950Z,59.45
2018-04-07T05:44:25.939Z,59.92
2018-04-07T05:45:25.906Z,60.11
2018-04-07T05:46:25.908Z,59.76
2018-04-07T05:47:25.900Z,60.43
2018-04-07T05:48:25.863Z,60.81
2018-04-07T05:49:25.834Z,60.24
2018-04-07T05:50:25.827Z,59.95
2018-04-07T05:51:25.820Z,59.86
2018-04-07T05:52:25.788Z,60.14
2018-04-07T05:53:25.813Z,60.05
2018-04-07T05:54:25.762Z,59.86
2018-04-07T05:55:25.739Z,59.86
2018-04-07T05:56:25.755Z,59.67
2018-04-07T05:57:25.729Z,59.95
2018-04-07T05:58:26.171Z,60.43
2018-04-07T05:59:29.585Z,60.14
2018-04-07T06:00:25.665Z,59.76
2018-04-07T06:01:25.643Z,60.14
2018-04-07T06:02:25.646Z,60.14
2018-04-07T06:03:25.636Z,59.95
2018-04-07T06:04:25.604Z,59.95
2018-04-07T06:05:25.592Z,59.38
2018-04-07T06:06:25.580Z,60.14
2018-04-07T06:07:25.578Z,59.48
2018-04-07T06:08:25.528Z,59.38
2018-04-07T06:09:25.542Z,60.05
2018-04-07T06:10:26.124Z,59.67
2018-04-07T06:11:25.493Z,60.33
2018-04-07T06:12:25.494Z,59.38
2018-04-07T06:13:25.563Z,59.57
2018-04-07T06:14:25.455Z,59.48
2018-04-07T06:15:26.081Z,59.57
2018-04-07T06:16:25.430Z,59.48
2018-04-07T06:17:25.406Z,59.09
2018-04-07T06:18:25.366Z,59.09
2018-04-07T06:19:25.352Z,59.28
2018-04-07T06:20:25.379Z,58.91
2018-04-07T06:21:25.363Z,59.00
2018-04-07T06:22:25.302Z,58.91
2018-04-07T06:23:26.142Z,59.19
2018-04-07T06:24:25.267Z,59.09
2018-04-07T06:25:48.334Z,59.28
2018-04-07T06:26:25.243Z,59.19
2018-04-07T06:27:25.218Z,58.81
2018-04-07T06:28:25.202Z,58.62
2018-04-07T06:29:28.147Z,59.00
2018-04-07T06:30:25.184Z,59.19
2018-04-07T06:31:25.198Z,58.81
2018-04-07T06:32:25.142Z,58.52
2018-04-07T06:33:25.122Z,58.36
2018-04-07T06:34:28.081Z,58.65
2018-04-07T06:35:25.090Z,58.55
2018-04-07T06:36:25.081Z,58.55
2018-04-07T06:37:25.081Z,59.31
2018-04-07T06:38:25.581Z,58.55
2018-04-07T06:39:25.029Z,58.36
2018-04-07T06:40:26.585Z,58.65
2018-04-07T06:41:25.004Z,58.55
2018-04-07T06:42:25.001Z,58.07
2018-04-07T06:43:24.968Z,58.46
2018-04-07T06:44:24.952Z,58.26
2018-04-07T06:45:24.934Z,57.89
2018-04-07T06:46:24.921Z,57.98
2018-04-07T06:47:24.910Z,58.26
2018-04-07T06:48:24.955Z,58.26
2018-04-07T06:49:24.866Z,58.26
2018-04-07T06:50:24.856Z,58.26
2018-04-07T06:51:24.836Z,58.07
2018-04-07T06:52:24.822Z,58.26
2018-04-07T06:53:24.823Z,57.89
2018-04-07T06:54:24.813Z,57.79
2018-04-07T06:55:24.789Z,58.07
2018-04-07T06:56:24.766Z,57.89
2018-04-07T06:57:24.746Z,58.01
2018-04-07T06:58:24.748Z,57.72
2018-04-07T06:59:24.713Z,58.11
2018-04-07T07:00:24.705Z,58.11
2018-04-07T07:01:24.699Z,57.53
2018-04-07T07:02:24.678Z,57.15
2018-04-07T07:03:24.667Z,57.34
2018-04-07T07:04:24.668Z,57.06
2018-04-07T07:05:24.623Z,56.77
2018-04-07T07:06:25.585Z,56.96
2018-04-07T07:07:24.598Z,57.43
2018-04-07T07:08:24.582Z,56.96
2018-04-07T07:09:24.560Z,56.87
2018-04-07T07:10:24.600Z,57.06
2018-04-07T07:11:24.531Z,56.80
2018-04-07T07:12:25.087Z,57.09
2018-04-07T07:13:24.501Z,56.89
2018-04-07T07:14:24.482Z,56.99
2018-04-07T07:15:24.486Z,56.89
2018-04-07T07:16:24.459Z,56.60
2018-04-07T07:17:24.450Z,56.60
2018-04-07T07:18:24.426Z,56.80
2018-04-07T07:19:24.405Z,56.32
2018-04-07T07:20:24.410Z,56.32
2018-04-07T07:21:24.376Z,56.60
2018-04-07T07:22:24.403Z,56.04
2018-04-07T07:23:24.344Z,55.27
2018-04-07T07:24:25.143Z,55.75
2018-04-07T07:25:24.342Z,55.84
2018-04-07T07:26:24.317Z,55.84
2018-04-07T07:27:24.304Z,55.65
2018-04-07T07:28:24.267Z,55.94
2018-04-07T07:29:24.259Z,55.36
2018-04-07T07:30:24.248Z,55.94
2018-04-07T07:31:24.241Z,56.35
2018-04-07T07:32:24.231Z,55.27
2018-04-07T07:33:24.202Z,55.46
2018-04-07T07:34:24.183Z,55.49
2018-04-07T07:35:24.171Z,55.40
2018-04-07T07:36:24.182Z,55.77
2018-04-07T07:37:24.156Z,55.77
2018-04-07T07:38:24.126Z,55.49
2018-04-07T07:39:24.123Z,54.91
2018-04-07T07:40:24.095Z,55.01
2018-04-07T07:41:24.086Z,54.34
2018-04-07T07:42:24.080Z,54.53
2018-04-07T07:43:24.054Z,54.06
2018-04-07T07:44:24.036Z,54.06
2018-04-07T07:45:24.033Z,54.53
2018-04-07T07:46:24.005Z,55.01
2018-04-07T07:47:24.059Z,54.34
2018-04-07T07:48:23.973Z,55.01
2018-04-07T07:49:23.986Z,55.01
2018-04-07T07:50:23.960Z,54.91
2018-04-07T07:51:23.940Z,54.94
2018-04-07T07:52:23.930Z,55.13
2018-04-07T07:53:23.911Z,54.75
2018-04-07T07:54:23.890Z,54.56
2018-04-07T07:55:23.892Z,54.18
2018-04-07T07:56:23.861Z,54.08
2018-04-07T07:57:23.867Z,54.37
2018-04-07T07:58:23.832Z,54.18
2018-04-07T07:59:23.823Z,54.27
2018-04-07T08:00:23.801Z,53.61
2018-04-07T08:01:23.792Z,53.63
2018-04-07T08:02:23.804Z,53.32
2018-04-07T08:03:23.777Z,53.53
2018-04-07T08:04:23.772Z,53.53
2018-04-07T08:05:23.781Z,52.96
2018-04-07T08:06:23.716Z,52.58
2018-04-07T08:07:23.698Z,53.06
2018-04-07T08:08:23.700Z,52.58
2018-04-07T08:09:25.665Z,52.20
2018-04-07T08:10:23.694Z,51.24
2018-04-07T08:11:23.644Z,51.81
2018-04-07T08:12:23.629Z,51.62
2018-04-07T08:13:23.623Z,51.72
2018-04-07T08:14:23.616Z,52.10
2018-04-07T08:15:23.608Z,51.91
2018-04-07T08:16:23.577Z,51.62
2018-04-07T08:17:23.558Z,51.62
2018-04-07T08:18:23.558Z,51.53
2018-04-07T08:19:24.607Z,51.34
2018-04-07T08:20:23.544Z,51.43
2018-04-07T08:21:23.521Z,52.01
2018-04-07T08:22:23.490Z,52.20
2018-04-07T08:23:23.484Z,52.32
2018-04-07T08:24:23.466Z,51.46
2018-04-07T08:25:23.448Z,51.65
2018-04-07T08:26:23.437Z,51.75
2018-04-07T08:27:23.443Z,51.46
2018-04-07T08:28:23.408Z,50.70
2018-04-07T08:29:23.392Z,50.50
2018-04-07T08:30:23.381Z,50.60
2018-04-07T08:31:23.368Z,50.41
2018-04-07T08:32:23.364Z,50.21
2018-04-07T08:33:23.352Z,50.21
2018-04-07T08:34:23.321Z,50.21
2018-04-07T08:35:23.309Z,50.02
2018-04-07T08:36:25.104Z,49.55
2018-04-07T08:37:23.303Z,49.93
2018-04-07T08:38:23.270Z,49.84
2018-04-07T08:39:23.316Z,49.48
2018-04-07T08:40:23.242Z,50.05
2018-04-07T08:41:23.226Z,49.38
2018-04-07T08:42:23.228Z,49.11
2018-04-07T08:43:23.201Z,48.83
2018-04-07T08:44:23.184Z,48.25
2018-04-07T08:45:23.216Z,48.35
2018-04-07T08:46:23.161Z,48.25
2018-04-07T08:47:23.155Z,48.25
2018-04-07T08:48:23.145Z,48.35
2018-04-07T08:49:23.116Z,48.44
2018-04-07T08:50:23.106Z,48.16
2018-04-07T08:51:24.108Z,48.28
2018-04-07T08:52:23.078Z,47.51
2018-04-07T08:53:23.086Z,46.96
2018-04-07T08:54:23.071Z,46.41
2018-04-07T08:56:23.032Z,45.07
2018-04-07T08:57:23.019Z,44.78
2018-04-07T08:58:23.008Z,44.78
2018-04-07T08:59:23.012Z,44.40
2018-04-07T09:00:23.002Z,44.51
2018-04-07T09:01:22.968Z,43.36
2018-04-07T09:02:22.953Z,43.36
2018-04-07T09:03:22.941Z,43.27
2018-04-07T09:04:22.922Z,43.07
2018-04-07T09:05:22.915Z,42.06
2018-04-07T09:06:22.920Z,41.77
2018-04-07T09:07:22.894Z,41.99
2018-04-07T09:08:22.876Z,41.31
2018-04-07T09:09:22.944Z,41.22
2018-04-07T09:10:22.865Z,41.12
2018-04-07T09:11:22.879Z,41.02
2018-04-07T09:12:22.865Z,41.10
2018-04-07T09:13:22.818Z,41.12
2018-04-07T09:14:22.807Z,40.66
2018-04-07T09:15:22.799Z,40.83
2018-04-07T09:16:22.805Z,41.22
2018-04-07T09:17:22.785Z,41.12
2018-04-07T09:18:26.615Z,40.85
2018-04-07T09:19:23.690Z,40.01
2018-04-07T09:20:22.738Z,39.04
2018-04-07T09:21:22.772Z,39.81
2018-04-07T09:22:22.722Z,39.79
2018-04-07T09:23:23.657Z,39.20
2018-04-07T09:24:22.719Z,40.35
2018-04-07T09:25:22.696Z,40.72
2018-04-07T09:26:22.683Z,40.64
2018-04-07T09:27:22.690Z,40.64
2018-04-07T09:28:22.682Z,40.64
2018-04-07T09:29:22.651Z,40.95
2018-04-07T09:30:22.650Z,41.33
2018-04-07T09:31:22.639Z,40.49
2018-04-07T09:32:22.626Z,39.62
2018-04-07T09:33:22.623Z,39.06
2018-04-07T09:34:22.636Z,39.06
2018-04-07T09:35:22.599Z,38.59
2018-04-07T09:36:22.592Z,38.76
2018-04-07T09:37:22.575Z,39.04
2018-04-07T09:38:22.613Z,39.43
2018-04-07T09:39:22.571Z,39.33
2018-04-07T09:40:23.164Z,39.06
2018-04-07T09:41:22.549Z,38.39
2018-04-07T09:42:22.544Z,38.68
2018-04-07T09:43:22.539Z,38.68
2018-04-07T09:44:22.526Z,38.59
2018-04-07T09:45:22.520Z,38.87
2018-04-07T09:46:23.625Z,38.59
2018-04-07T09:47:22.510Z,37.85
2018-04-07T09:48:22.501Z,37.64
2018-04-07T09:49:22.496Z,37.45
2018-04-07T09:50:22.525Z,37.54
2018-04-07T09:51:22.484Z,38.04
2018-04-07T09:52:23.195Z,37.66
2018-04-07T09:53:22.463Z,37.72
2018-04-07T09:54:22.467Z,38.02
2018-04-07T09:55:22.477Z,37.45
2018-04-07T09:56:22.452Z,37.56
2018-04-07T09:57:22.457Z,37.37
2018-04-07T09:58:22.459Z,37.48
2018-04-07T09:59:22.430Z,36.89
2018-04-07T10:00:22.456Z,37.46
2018-04-07T10:01:22.439Z,37.18
2018-04-07T10:02:22.419Z,36.89
2018-04-07T10:03:22.414Z,37.39
2018-04-07T10:04:22.422Z,37.39
2018-04-07T10:05:22.403Z,37.18
2018-04-07T10:06:22.413Z,37.66
2018-04-07T10:07:22.391Z,37.01
2018-04-07T10:08:22.395Z,37.01
2018-04-07T10:09:22.376Z,36.04
2018-04-07T10:10:22.383Z,36.60
2018-04-07T10:11:22.427Z,37.76
2018-04-07T10:12:23.135Z,37.37
2018-04-07T10:13:23.215Z,37.95
2018-04-07T10:14:22.376Z,37.85
2018-04-07T10:15:22.346Z,37.48
2018-04-07T10:16:22.604Z,37.29
2018-04-07T10:17:22.359Z,37.27
2018-04-07T10:18:22.336Z,37.56
2018-04-07T10:19:22.328Z,37.83
2018-04-07T10:20:22.328Z,37.93
2018-04-07T10:21:22.324Z,38.22
2018-04-07T10:22:22.307Z,38.12
2018-04-07T10:23:22.343Z,37.76
2018-04-07T10:24:22.309Z,37.89
2018-04-07T10:25:22.304Z,37.21
2018-04-07T10:26:22.295Z,36.25
2018-04-07T10:27:22.290Z,36.07
2018-04-07T10:28:22.299Z,35.61
2018-04-07T10:29:22.293Z,35.03
2018-04-07T10:30:22.280Z,34.95
2018-04-07T10:31:22.294Z,34.38
2018-04-07T10:32:22.266Z,34.63
2018-04-07T10:33:22.259Z,35.77
2018-04-07T10:34:22.272Z,35.78
2018-04-07T10:35:22.255Z,34.94
2018-04-07T10:36:22.246Z,34.82
2018-04-07T10:37:22.244Z,34.84
2018-04-07T10:38:22.239Z,34.56
2018-04-07T10:39:23.217Z,33.89
2018-04-07T10:40:22.246Z,32.96
2018-04-07T10:41:22.240Z,32.49
2018-04-07T10:42:22.219Z,32.86
2018-04-07T10:43:22.223Z,32.10
2018-04-07T10:44:22.228Z,32.01
2018-04-07T10:45:22.206Z,32.60
2018-04-07T10:46:22.225Z,31.52
2018-04-07T10:47:22.255Z,31.89
2018-04-07T10:48:22.235Z,32.36
2018-04-07T10:49:22.201Z,32.75
2018-04-07T10:50:22.229Z,32.76
2018-04-07T10:51:22.197Z,32.38
2018-04-07T10:52:22.192Z,32.28
2018-04-07T10:53:22.196Z,32.46
2018-04-07T10:54:22.200Z,33.22
2018-04-07T10:55:23.152Z,33.33
2018-04-07T10:56:22.211Z,33.52
2018-04-07T10:57:22.193Z,33.33
2018-04-07T10:58:22.173Z,32.96
2018-04-07T10:59:22.174Z,33.14
2018-04-07T11:00:22.168Z,32.75
2018-04-07T11:01:22.186Z,32.76
2018-04-07T11:02:22.179Z,33.05
2018-04-07T11:03:24.727Z,33.23
2018-04-07T11:04:22.681Z,32.94
2018-04-07T11:05:22.173Z,33.50
2018-04-07T11:06:22.768Z,33.89
2018-04-07T11:07:22.200Z,34.18
2018-04-07T11:08:22.144Z,34.00
2018-04-07T11:09:22.185Z,34.45
2018-04-07T11:10:22.725Z,35.13
2018-04-07T11:11:22.204Z,34.66
2018-04-07T11:12:22.582Z,34.08
2018-04-07T11:13:22.161Z,33.87
2018-04-07T11:14:22.128Z,33.80
2018-04-07T11:15:22.122Z,33.31
2018-04-07T11:16:22.124Z,33.42
2018-04-07T11:17:22.180Z,33.52
2018-04-07T11:18:22.122Z,33.42
2018-04-07T11:19:22.137Z,33.44
2018-04-07T11:20:22.110Z,33.04
2018-04-07T11:21:22.100Z,33.05
2018-04-07T11:22:22.109Z,33.44
2018-04-07T11:23:22.104Z,32.28
2018-04-07T11:24:22.107Z,32.47
2018-04-07T11:25:22.091Z,32.17
2018-04-07T11:26:22.087Z,33.04
2018-04-07T11:27:22.084Z,32.75
2018-04-07T11:28:22.087Z,32.47
2018-04-07T11:29:22.097Z,32.94
2018-04-07T11:30:22.072Z,33.44
2018-04-07T11:31:22.072Z,32.67
2018-04-07T11:32:22.071Z,32.29
2018-04-07T11:33:22.079Z,32.68
2018-04-07T11:34:22.059Z,32.78
2018-04-07T11:35:22.083Z,32.78
2018-04-07T11:36:22.053Z,32.28
2018-04-07T11:37:22.053Z,32.84
2018-04-07T11:38:22.050Z,33.05
2018-04-07T11:39:22.046Z,33.42
2018-04-07T11:40:22.062Z,33.98
2018-04-07T11:41:22.043Z,33.81
2018-04-07T11:42:22.037Z,34.39
2018-04-07T11:43:22.037Z,33.44
2018-04-07T11:44:22.026Z,32.96
2018-04-07T11:45:22.092Z,33.34
2018-04-07T11:46:22.025Z,32.86
2018-04-07T11:47:22.026Z,31.80
2018-04-07T11:48:22.016Z,32.65
2018-04-07T11:49:22.014Z,32.94
2018-04-07T11:50:22.009Z,32.38
2018-04-07T11:51:22.023Z,31.70
2018-04-07T11:52:22.014Z,32.67
2018-04-07T11:53:21.995Z,32.49
2018-04-07T11:54:21.995Z,32.39
2018-04-07T11:55:21.988Z,31.91
2018-04-07T11:56:21.990Z,32.60
2018-04-07T11:57:22.010Z,31.44
2018-04-07T11:58:21.981Z,31.54
2018-04-07T11:59:21.978Z,31.73
2018-04-07T12:00:21.982Z,31.63
2018-04-07T12:01:21.966Z,31.63
2018-04-07T12:02:22.742Z,31.44
2018-04-07T12:03:21.984Z,31.83
2018-04-07T12:04:21.998Z,31.46
2018-04-07T12:05:21.965Z,31.26
2018-04-07T12:06:21.954Z,31.36
2018-04-07T12:07:21.967Z,30.57
2018-04-07T12:08:21.954Z,31.26
2018-04-07T12:09:21.947Z,30.66
2018-04-07T12:10:22.003Z,31.44
2018-04-07T12:11:21.938Z,32.02
2018-04-07T12:12:21.963Z,31.44
2018-04-07T12:13:21.961Z,31.44
2018-04-07T12:14:22.760Z,31.36
2018-04-07T12:15:21.950Z,31.57
2018-04-07T12:16:21.931Z,30.81
2018-04-07T12:17:21.940Z,30.32
2018-04-07T12:18:21.947Z,30.15
2018-04-07T12:19:21.937Z,29.95
2018-04-07T12:20:21.923Z,29.47
2018-04-07T12:21:21.916Z,29.84
2018-04-07T12:22:21.920Z,30.23
2018-04-07T12:23:21.929Z,30.91
2018-04-07T12:24:21.934Z,30.24
2018-04-07T12:25:21.914Z,29.94
2018-04-07T12:26:21.915Z,29.26
2018-04-07T12:27:21.912Z,29.94
2018-04-07T12:28:21.914Z,29.36
2018-04-07T12:29:21.928Z,29.83
2018-04-07T12:30:21.923Z,29.83
2018-04-07T12:31:21.928Z,30.02
2018-04-07T12:32:21.907Z,30.60
2018-04-07T12:33:21.909Z,30.41
2018-04-07T12:34:21.919Z,29.46
2018-04-07T12:35:21.902Z,28.86
2018-04-07T12:36:21.906Z,29.05
2018-04-07T12:37:21.905Z,29.64
2018-04-07T12:38:21.900Z,29.53
2018-04-07T12:39:21.902Z,29.36
2018-04-07T12:40:21.915Z,29.46
2018-04-07T12:41:21.907Z,29.46
2018-04-07T12:42:21.900Z,30.11
2018-04-07T12:43:21.947Z,29.83
2018-04-07T12:44:21.896Z,29.53
2018-04-07T12:45:21.997Z,29.44
2018-04-07T12:46:21.896Z,29.34
2018-04-07T12:47:21.896Z,28.77
2018-04-07T12:48:21.888Z,29.84
2018-04-07T12:49:21.891Z,29.94
2018-04-07T12:50:21.903Z,30.13
2018-04-07T12:51:21.885Z,29.27
2018-04-07T12:52:21.900Z,28.90
2018-04-07T12:53:23.653Z,28.51
2018-04-07T12:54:21.891Z,28.43